Time;durP1;ratioP1;P1;durP2;ratioP2;P2;SDS_P1;SDS_P2;PMS_P1;PMS_P2;Temp;Humidity;BMP_temperature;BMP_pressure;BME280_temperature;BME280_humidity;BME280_pressure;Samples;Min_cycle;Max_cycle;Signal;HPM_P1;HPM_P2
2023/09/05 00:02:17;;;;;;;4.10;3.00;;;15.40;99.90;;;;;;5029021;28;20473;-64
2023/09/05 00:04:44;;;;;;;3.10;2.87;;;15.40;99.90;;;;;;5028608;28;20996;-65
2023/09/05 00:07:11;;;;;;;3.23;2.77;;;15.30;99.90;;;;;;5027998;28;20543;-65
2023/09/05 00:09:40;;;;;;;4.10;3.47;;;15.30;99.90;;;;;;5028693;28;20589;-65
2023/09/05 00:12:08;;;;;;;2.80;2.60;;;15.30;99.90;;;;;;5028475;28;20487;-65
2023/09/05 00:14:36;;;;;;;4.17;3.23;;;15.30;99.90;;;;;;5028560;28;20541;-65
2023/09/05 00:17:03;;;;;;;3.20;3.00;;;15.20;99.90;;;;;;5027949;28;20531;-65
2023/09/05 00:19:29;;;;;;;3.63;3.33;;;15.20;99.90;;;;;;5028667;28;20456;-64
2023/09/05 00:21:56;;;;;;;3.30;3.10;;;15.20;99.90;;;;;;5028499;28;20474;-65
2023/09/05 00:24:24;;;;;;;4.70;4.17;;;15.20;99.90;;;;;;5028527;28;20470;-65
2023/09/05 00:26:53;;;;;;;3.30;3.00;;;15.10;99.90;;;;;;5027805;28;20460;-65
2023/09/05 00:29:20;;;;;;;3.10;2.90;;;15.10;99.90;;;;;;5028577;28;20822;-65
2023/09/05 00:31:47;;;;;;;3.50;3.20;;;15.10;99.90;;;;;;5028352;28;21415;-64
2023/09/05 00:34:14;;;;;;;3.30;3.10;;;15.10;99.90;;;;;;5027319;28;20448;-64
2023/09/05 00:36:41;;;;;;;3.40;3.10;;;15.00;99.90;;;;;;5027805;28;20874;-65
2023/09/05 00:39:09;;;;;;;4.13;3.33;;;15.00;99.90;;;;;;5028516;28;20538;-65
2023/09/05 00:41:37;;;;;;;4.23;3.13;;;15.10;99.90;;;;;;5028204;28;20481;-65
2023/09/05 00:44:06;;;;;;;8.83;3.80;;;15.00;99.90;;;;;;5028211;28;20453;-64
2023/09/05 00:46:33;;;;;;;3.00;2.70;;;15.00;99.90;;;;;;5027392;28;20449;-65
2023/09/05 00:49:02;;;;;;;5.50;3.47;;;15.00;99.90;;;;;;5028160;28;20532;-65
2023/09/05 00:51:30;;;;;;;3.37;2.90;;;14.90;99.90;;;;;;5028453;28;20510;-65
2023/09/05 00:53:56;;;;;;;3.97;3.67;;;14.90;99.90;;;;;;5028478;28;20455;-65
2023/09/05 00:56:23;;;;;;;3.17;2.83;;;14.90;99.90;;;;;;5027719;28;20476;-65
2023/09/05 00:58:51;;;;;;;2.93;2.70;;;14.90;99.90;;;;;;5028334;28;20459;-65
2023/09/05 01:01:19;;;;;;;3.40;3.10;;;14.80;99.90;;;;;;5027913;28;20486;-65
2023/09/05 01:03:45;;;;;;;3.77;3.43;;;14.80;99.90;;;;;;5028232;28;20542;-65
2023/09/05 01:06:31;;;;;;;3.60;3.30;;;14.80;99.90;;;;;;5027107;28;20986;-65
2023/09/05 01:09:05;;;;;;;3.17;2.87;;;14.80;99.90;;;;;;5027974;28;20986;-65
2023/09/05 01:11:33;;;;;;;2.80;2.60;;;14.80;99.90;;;;;;5027741;28;20551;-65
2023/09/05 01:14:00;;;;;;;3.20;2.97;;;14.70;99.90;;;;;;5027804;28;20508;-65
2023/09/05 01:16:28;;;;;;;3.13;2.30;;;14.70;99.90;;;;;;5028103;28;20804;-64
2023/09/05 01:18:55;;;;;;;3.70;2.97;;;14.70;99.90;;;;;;5031888;28;20537;-65
2023/09/05 01:21:30;;;;;;;3.47;3.17;;;14.70;99.90;;;;;;5032099;28;20551;-64
2023/09/05 01:24:11;;;;;;;3.93;3.37;;;14.70;99.90;;;;;;5031955;28;20455;-65
2023/09/05 01:26:38;;;;;;;2.63;2.43;;;14.70;99.90;;;;;;5031038;28;20454;-65
2023/09/05 01:29:06;;;;;;;3.13;2.70;;;14.70;99.90;;;;;;5031798;28;21070;-65
2023/09/05 01:31:34;;;;;;;3.17;2.73;;;14.70;99.90;;;;;;5031489;28;20495;-65
2023/09/05 01:34:00;;;;;;;3.70;3.40;;;14.70;99.90;;;;;;5029949;28;20463;-65
2023/09/05 01:36:27;;;;;;;3.27;3.00;;;14.70;99.90;;;;;;5030687;28;20458;-64
2023/09/05 01:38:54;;;;;;;4.07;3.77;;;14.70;99.90;;;;;;5031890;28;20455;-64
2023/09/05 01:41:22;;;;;;;2.90;2.70;;;14.70;99.90;;;;;;5031493;28;20489;-65
2023/09/05 01:43:49;;;;;;;3.00;2.80;;;14.60;99.90;;;;;;5031796;28;20455;-65
2023/09/05 01:46:16;;;;;;;3.50;3.20;;;14.60;99.90;;;;;;5030579;28;20461;-65
2023/09/05 01:48:43;;;;;;;3.53;3.23;;;14.60;99.90;;;;;;5031307;28;20449;-64
2023/09/05 01:51:10;;;;;;;2.90;2.70;;;14.50;99.90;;;;;;5031397;28;21029;-64
2023/09/05 01:53:37;;;;;;;3.17;2.93;;;14.50;99.90;;;;;;5031341;28;20456;-65
2023/09/05 01:56:04;;;;;;;3.47;3.27;;;14.50;99.90;;;;;;5030571;28;20457;-65
2023/09/05 01:58:32;;;;;;;3.70;3.30;;;14.50;99.90;;;;;;5031370;28;20576;-65
2023/09/05 02:01:02;;;;;;;2.53;2.33;;;14.50;99.90;;;;;;5031100;28;20488;-65
2023/09/05 02:03:29;;;;;;;3.80;3.30;;;14.50;99.90;;;;;;5030968;28;20460;-65
2023/09/05 02:05:56;;;;;;;3.10;2.90;;;14.50;99.90;;;;;;5030683;28;20558;-65
2023/09/05 02:08:24;;;;;;;2.33;2.23;;;14.40;99.90;;;;;;5031283;28;20445;-64
2023/09/05 02:10:50;;;;;;;3.13;2.93;;;14.40;99.90;;;;;;5030957;28;20576;-65
2023/09/05 02:13:18;;;;;;;4.50;3.20;;;14.40;99.90;;;;;;5031438;28;20464;-65
2023/09/05 02:15:46;;;;;;;3.10;2.90;;;14.40;99.90;;;;;;5031053;28;20454;-65
2023/09/05 02:18:13;;;;;;;3.80;3.50;;;14.40;99.90;;;;;;5030206;28;20996;-65
2023/09/05 02:20:40;;;;;;;3.13;2.93;;;14.40;99.90;;;;;;5030941;28;20461;-65
2023/09/05 02:23:07;;;;;;;3.20;3.00;;;14.40;99.90;;;;;;5030838;28;20486;-65
2023/09/05 02:25:34;;;;;;;3.13;2.83;;;14.30;99.90;;;;;;5030693;28;20951;-65
2023/09/05 02:28:01;;;;;;;3.30;3.00;;;14.30;99.90;;;;;;5029625;28;20502;-64
2023/09/05 02:30:28;;;;;;;3.87;3.57;;;14.30;99.90;;;;;;5030224;28;20492;-64
2023/09/05 02:32:56;;;;;;;8.13;3.70;;;14.30;99.90;;;;;;5028970;28;20530;-64
2023/09/05 02:35:23;;;;;;;3.90;3.60;;;14.30;99.90;;;;;;5030565;28;20925;-64
2023/09/05 02:37:51;;;;;;;3.13;2.83;;;14.30;99.90;;;;;;5029942;28;20475;-65
2023/09/05 02:40:18;;;;;;;4.13;3.10;;;14.30;99.90;;;;;;5030605;28;20451;-64
2023/09/05 02:42:45;;;;;;;3.60;3.40;;;14.30;99.90;;;;;;5030338;28;20834;-64
2023/09/05 02:45:13;;;;;;;3.27;2.93;;;14.30;99.90;;;;;;5030402;28;20541;-65
2023/09/05 02:47:40;;;;;;;5.20;3.17;;;14.30;99.90;;;;;;5029709;28;20459;-65
2023/09/05 02:50:09;;;;;;;3.40;3.07;;;14.30;99.90;;;;;;5030290;28;20490;-64
2023/09/05 02:52:37;;;;;;;3.07;2.87;;;14.20;99.90;;;;;;5030197;28;20557;-65
2023/09/05 02:55:05;;;;;;;3.60;3.20;;;14.20;99.90;;;;;;5030088;28;20449;-65
2023/09/05 02:57:32;;;;;;;2.90;2.77;;;14.20;99.90;;;;;;5029353;28;20454;-65
2023/09/05 02:59:58;;;;;;;3.70;3.40;;;14.20;99.90;;;;;;5030243;28;20453;-65
2023/09/05 03:02:26;;;;;;;4.20;3.80;;;14.10;99.90;;;;;;5030084;28;20470;-65
2023/09/05 03:04:53;;;;;;;3.40;3.00;;;14.10;99.90;;;;;;5030213;28;20458;-65
2023/09/05 03:07:22;;;;;;;7.20;3.20;;;14.10;99.90;;;;;;5029321;28;20449;-65
2023/09/05 03:09:51;;;;;;;3.67;3.30;;;14.00;99.90;;;;;;5026550;28;20511;-65
2023/09/05 03:12:18;;;;;;;5.40;3.23;;;14.00;99.90;;;;;;5029555;28;20477;-65
2023/09/05 03:14:45;;;;;;;4.97;4.40;;;14.00;99.90;;;;;;5030174;28;20465;-65
2023/09/05 03:17:11;;;;;;;4.17;3.63;;;14.00;99.90;;;;;;5028851;28;20545;-65
2023/09/05 03:19:39;;;;;;;4.33;3.80;;;14.00;99.90;;;;;;5029451;28;20549;-65
2023/09/05 03:22:06;;;;;;;3.50;3.10;;;14.00;99.90;;;;;;5029635;28;20466;-65
2023/09/05 03:24:35;;;;;;;4.20;3.50;;;14.00;99.90;;;;;;5029962;28;20449;-65
2023/09/05 03:27:04;;;;;;;4.27;3.97;;;13.90;99.90;;;;;;5029173;28;20541;-65
2023/09/05 03:29:31;;;;;;;3.80;3.50;;;13.90;99.90;;;;;;5029663;28;20481;-65
2023/09/05 03:31:57;;;;;;;3.83;3.00;;;13.90;99.90;;;;;;5029627;28;20499;-65
2023/09/05 03:34:24;;;;;;;3.03;2.83;;;13.80;99.90;;;;;;5028113;28;20833;-64
2023/09/05 03:36:51;;;;;;;3.80;3.60;;;13.80;99.90;;;;;;5029027;28;20457;-65
2023/09/05 03:39:18;;;;;;;3.87;3.57;;;13.80;99.90;;;;;;5028629;28;20459;-65
2023/09/05 03:41:46;;;;;;;4.23;2.90;;;13.70;99.90;;;;;;5029205;28;20465;-65
2023/09/05 03:44:16;;;;;;;6.80;3.60;;;13.70;99.90;;;;;;5029111;28;20450;-65
2023/09/05 03:46:43;;;;;;;3.97;3.67;;;13.70;99.90;;;;;;5028603;28;20843;-64
2023/09/05 03:49:10;;;;;;;3.90;3.60;;;13.70;99.90;;;;;;5028987;28;20442;-65
2023/09/05 03:51:37;;;;;;;3.77;3.47;;;13.70;99.90;;;;;;5029119;28;20501;-65
2023/09/05 03:54:04;;;;;;;3.37;3.07;;;13.60;99.90;;;;;;5029181;28;20544;-65
2023/09/05 03:56:31;;;;;;;6.27;4.13;;;13.60;99.90;;;;;;5028729;28;20517;-65
2023/09/05 03:58:59;;;;;;;4.70;4.30;;;13.60;99.90;;;;;;5029291;28;20824;-65
2023/09/05 04:01:27;;;;;;;3.80;3.50;;;13.60;99.90;;;;;;5029204;28;20465;-65
2023/09/05 04:03:53;;;;;;;3.97;3.23;;;13.60;99.90;;;;;;5029206;28;20479;-65
2023/09/05 04:06:20;;;;;;;3.87;3.57;;;13.60;99.90;;;;;;5028113;28;21021;-64
2023/09/05 04:08:47;;;;;;;4.20;3.80;;;13.50;99.90;;;;;;5029171;28;20452;-64
2023/09/05 04:11:14;;;;;;;3.37;3.17;;;13.50;99.90;;;;;;5028448;28;20870;-64
2023/09/05 04:13:41;;;;;;;3.87;2.70;;;13.50;99.90;;;;;;5028696;28;20453;-64
2023/09/05 04:16:09;;;;;;;3.50;3.30;;;13.40;99.90;;;;;;5028049;28;20749;-64
2023/09/05 04:18:36;;;;;;;3.90;3.60;;;13.40;99.90;;;;;;5028586;28;20984;-65
2023/09/05 04:21:03;;;;;;;5.73;4.23;;;13.40;99.90;;;;;;5028802;28;20465;-64
2023/09/05 04:23:30;;;;;;;2.90;2.70;;;13.40;99.90;;;;;;5029059;28;20544;-65
2023/09/05 04:25:59;;;;;;;4.63;3.53;;;13.30;99.90;;;;;;5027741;28;20465;-65
2023/09/05 04:28:27;;;;;;;3.70;3.40;;;13.30;99.90;;;;;;5028416;28;20951;-64
2023/09/05 04:30:55;;;;;;;5.90;3.40;;;13.30;99.90;;;;;;5028744;28;20507;-64
2023/09/05 04:33:25;;;;;;;3.57;3.03;;;13.30;99.90;;;;;;5027093;28;20457;-65
2023/09/05 04:35:53;;;;;;;3.90;3.50;;;13.30;99.90;;;;;;5028462;28;20450;-65
2023/09/05 04:38:19;;;;;;;4.10;3.77;;;13.30;99.90;;;;;;5028288;28;20544;-64
2023/09/05 04:40:46;;;;;;;5.60;5.13;;;13.30;99.90;;;;;;5028693;28;20469;-65
2023/09/05 04:43:13;;;;;;;3.67;3.40;;;13.30;99.90;;;;;;5028525;28;20451;-64
2023/09/05 04:45:40;;;;;;;3.60;3.30;;;13.30;99.90;;;;;;5028351;28;20459;-64
2023/09/05 04:48:07;;;;;;;3.07;2.77;;;13.30;99.90;;;;;;5027285;28;20831;-64
2023/09/05 04:50:35;;;;;;;3.57;3.27;;;13.30;99.90;;;;;;5027909;28;20544;-64
2023/09/05 04:53:02;;;;;;;3.73;3.43;;;13.30;99.90;;;;;;5028299;28;20451;-64
2023/09/05 04:55:29;;;;;;;3.60;3.30;;;13.30;99.90;;;;;;5028358;28;20975;-64
2023/09/05 04:57:56;;;;;;;4.40;4.00;;;13.30;99.90;;;;;;5027708;28;20463;-64
2023/09/05 05:00:23;;;;;;;4.00;3.60;;;13.30;99.90;;;;;;5028368;28;20455;-64
2023/09/05 05:02:50;;;;;;;4.20;3.80;;;13.30;99.90;;;;;;5028160;28;20508;-64
2023/09/05 05:05:17;;;;;;;3.43;3.13;;;13.30;99.90;;;;;;5028082;28;20449;-64
2023/09/05 05:07:46;;;;;;;3.43;3.10;;;13.30;99.90;;;;;;5027146;28;20795;-65
2023/09/05 05:10:13;;;;;;;4.10;3.80;;;13.30;99.90;;;;;;5028227;28;21173;-65
2023/09/05 05:12:41;;;;;;;4.70;3.87;;;13.30;99.90;;;;;;5027581;28;20586;-65
2023/09/05 05:15:08;;;;;;;4.03;3.73;;;13.30;99.90;;;;;;5028032;28;20464;-65
2023/09/05 05:17:35;;;;;;;3.80;3.40;;;13.30;99.90;;;;;;5027336;28;20457;-65
2023/09/05 05:20:04;;;;;;;3.60;3.30;;;13.30;99.90;;;;;;5027850;28;20964;-64
2023/09/05 05:22:31;;;;;;;3.97;3.53;;;13.30;99.90;;;;;;5027800;28;20505;-64
2023/09/05 05:24:59;;;;;;;5.20;3.57;;;13.40;99.90;;;;;;5028214;28;20485;-64
2023/09/05 05:27:26;;;;;;;3.17;2.87;;;13.40;99.90;;;;;;5027576;28;20528;-64
2023/09/05 05:29:53;;;;;;;4.17;3.83;;;13.40;99.90;;;;;;5027878;28;20459;-64
2023/09/05 05:32:20;;;;;;;3.87;3.53;;;13.40;99.90;;;;;;5025756;28;20674;-65
2023/09/05 05:34:48;;;;;;;3.83;3.63;;;13.40;99.90;;;;;;5027809;28;20466;-64
2023/09/05 05:37:16;;;;;;;3.80;3.50;;;13.40;99.90;;;;;;5026835;28;20460;-64
2023/09/05 05:39:43;;;;;;;3.30;3.10;;;13.40;99.90;;;;;;5028048;28;20461;-64
2023/09/05 05:42:12;;;;;;;4.00;3.70;;;13.50;99.90;;;;;;5027908;28;20556;-64
2023/09/05 05:44:39;;;;;;;4.13;3.83;;;13.50;99.90;;;;;;5027616;28;20457;-64
2023/09/05 05:47:06;;;;;;;4.07;3.77;;;13.50;99.90;;;;;;5027078;28;20457;-64
2023/09/05 05:49:33;;;;;;;4.07;2.77;;;13.50;99.90;;;;;;5027842;28;20449;-64
2023/09/05 05:52:01;;;;;;;4.37;3.97;;;13.50;99.90;;;;;;5027724;28;21062;-64
2023/09/05 05:54:28;;;;;;;4.37;3.90;;;13.50;99.90;;;;;;5027864;28;20460;-64
2023/09/05 05:56:56;;;;;;;4.87;3.33;;;13.50;99.90;;;;;;5027240;28;20449;-64
2023/09/05 05:59:25;;;;;;;5.13;4.00;;;13.60;99.90;;;;;;5027413;28;20453;-64
2023/09/05 06:01:52;;;;;;;3.77;3.47;;;13.60;99.90;;;;;;5027332;28;20970;-64
2023/09/05 06:04:20;;;;;;;4.10;3.27;;;13.60;99.90;;;;;;5031353;28;20869;-64
2023/09/05 06:06:49;;;;;;;4.00;3.60;;;13.70;99.90;;;;;;5030426;28;20539;-65
2023/09/05 06:09:18;;;;;;;3.93;3.07;;;13.70;99.90;;;;;;5030815;28;20456;-65
2023/09/05 06:11:45;;;;;;;3.90;3.50;;;13.70;99.90;;;;;;5030636;28;20583;-64
2023/09/05 06:14:13;;;;;;;4.47;3.67;;;13.70;99.90;;;;;;5030878;28;20563;-64
2023/09/05 06:16:42;;;;;;;4.13;3.63;;;13.80;99.90;;;;;;5030092;28;20453;-64
2023/09/05 06:19:09;;;;;;;4.13;3.73;;;13.80;99.90;;;;;;5030890;28;20463;-65
2023/09/05 06:21:36;;;;;;;5.73;4.10;;;13.80;99.90;;;;;;5030863;28;21359;-64
2023/09/05 06:24:02;;;;;;;4.90;4.30;;;13.90;99.90;;;;;;5030953;28;20461;-64
2023/09/05 06:26:29;;;;;;;4.47;3.23;;;13.90;99.90;;;;;;5029849;28;20796;-65
2023/09/05 06:28:56;;;;;;;3.90;3.33;;;13.90;99.90;;;;;;5030791;28;20448;-64
2023/09/05 06:31:23;;;;;;;3.90;3.60;;;14.00;99.90;;;;;;5030404;28;20496;-65
2023/09/05 06:33:51;;;;;;;3.70;3.40;;;14.10;99.90;;;;;;5028717;28;20462;-65
2023/09/05 06:36:18;;;;;;;2.83;2.63;;;14.10;99.90;;;;;;5029656;28;20456;-65
2023/09/05 06:38:45;;;;;;;5.53;3.70;;;14.30;99.90;;;;;;5030308;28;20976;-64
2023/09/05 06:41:12;;;;;;;3.37;3.10;;;14.40;99.90;;;;;;5030356;28;20452;-64
2023/09/05 06:43:39;;;;;;;4.07;3.60;;;14.70;99.90;;;;;;5030143;28;20537;-64
2023/09/05 06:46:08;;;;;;;3.80;3.50;;;14.90;99.90;;;;;;5029684;28;20536;-64
2023/09/05 06:48:35;;;;;;;3.40;3.20;;;15.20;99.90;;;;;;5030457;28;20987;-64
2023/09/05 06:51:03;;;;;;;3.50;3.17;;;15.40;99.90;;;;;;5029981;28;20584;-64
2023/09/05 06:53:32;;;;;;;3.73;3.43;;;15.60;99.90;;;;;;5030679;28;20542;-65
2023/09/05 06:55:59;;;;;;;2.60;2.50;;;15.90;99.90;;;;;;5029968;28;20537;-65
2023/09/05 06:58:26;;;;;;;5.00;3.03;;;16.10;99.90;;;;;;5030430;28;20458;-64
2023/09/05 07:00:55;;;;;;;5.73;3.27;;;16.30;99.90;;;;;;5030430;28;20475;-64
2023/09/05 07:03:22;;;;;;;7.07;3.23;;;16.50;99.90;;;;;;5030234;28;20547;-64
2023/09/05 07:05:49;;;;;;;3.70;3.40;;;16.70;99.90;;;;;;5030093;28;20451;-64
2023/09/05 07:08:17;;;;;;;3.47;3.17;;;16.90;99.90;;;;;;5030069;28;20456;-65
2023/09/05 07:10:44;;;;;;;3.97;3.67;;;17.10;99.90;;;;;;5030095;28;20511;-65
2023/09/05 07:13:11;;;;;;;3.27;3.00;;;17.30;99.90;;;;;;5029959;28;20496;-65
2023/09/05 07:15:38;;;;;;;12.47;11.67;;;17.50;99.90;;;;;;5029236;28;20538;-65
2023/09/05 07:18:05;;;;;;;7.77;7.17;;;17.60;99.90;;;;;;5029440;28;20448;-65
2023/09/05 07:20:32;;;;;;;4.80;4.40;;;17.80;99.90;;;;;;5030559;28;20455;-64
2023/09/05 07:22:59;;;;;;;4.17;3.80;;;17.90;99.90;;;;;;5030418;28;20450;-65
2023/09/05 07:25:27;;;;;;;3.67;3.37;;;18.10;99.90;;;;;;5029984;28;20997;-65
2023/09/05 07:27:55;;;;;;;3.70;3.40;;;18.20;99.90;;;;;;5029577;28;20554;-65
2023/09/05 07:30:22;;;;;;;3.30;3.10;;;18.30;99.90;;;;;;5030051;28;20941;-65
2023/09/05 07:32:48;;;;;;;2.87;2.60;;;18.40;99.90;;;;;;5028645;28;20496;-65
2023/09/05 07:35:16;;;;;;;3.90;3.60;;;18.60;99.90;;;;;;5029800;28;20828;-65
2023/09/05 07:37:43;;;;;;;3.60;3.30;;;18.70;99.90;;;;;;5028996;28;20469;-65
2023/09/05 07:40:14;;;;;;;3.33;3.10;;;18.80;99.90;;;;;;5029729;28;20457;-64
2023/09/05 07:42:42;;;;;;;3.90;3.60;;;19.00;99.90;;;;;;5029633;28;20480;-65
2023/09/05 07:45:10;;;;;;;5.07;4.63;;;19.10;99.90;;;;;;5029862;28;20460;-64
2023/09/05 07:47:37;;;;;;;3.70;3.20;;;19.10;99.90;;;;;;5028997;28;20532;-65
2023/09/05 07:50:05;;;;;;;4.20;3.90;;;19.20;99.90;;;;;;5029800;28;20537;-65
2023/09/05 07:52:33;;;;;;;3.07;2.87;;;19.30;99.90;;;;;;5029414;28;20496;-65
2023/09/05 07:55:00;;;;;;;4.43;4.07;;;19.40;99.90;;;;;;5029562;28;20476;-65
2023/09/05 07:57:27;;;;;;;3.27;2.97;;;19.50;99.90;;;;;;5028583;28;20444;-65
2023/09/05 07:59:55;;;;;;;4.50;4.10;;;19.60;99.90;;;;;;5029393;28;21018;-65
2023/09/05 08:02:22;;;;;;;4.23;3.80;;;19.70;99.90;;;;;;5029526;28;20473;-65
2023/09/05 08:04:49;;;;;;;3.53;3.33;;;19.70;99.90;;;;;;5029475;28;20533;-65
2023/09/05 08:07:16;;;;;;;3.63;3.33;;;19.90;99.90;;;;;;5028518;28;20448;-65
2023/09/05 08:09:43;;;;;;;3.40;3.20;;;19.90;99.90;;;;;;5028836;28;20459;-64
2023/09/05 08:12:10;;;;;;;4.50;3.33;;;20.10;99.90;;;;;;5028927;28;20525;-65
2023/09/05 08:14:37;;;;;;;3.13;2.90;;;20.20;99.90;;;;;;5028877;28;20535;-65
2023/09/05 08:17:05;;;;;;;4.37;4.00;;;20.20;99.90;;;;;;5028445;28;20455;-65
2023/09/05 08:19:32;;;;;;;2.90;2.70;;;20.30;99.90;;;;;;5029096;28;20456;-64
2023/09/05 08:21:58;;;;;;;4.80;3.77;;;20.50;99.90;;;;;;5028536;28;20471;-64
2023/09/05 08:24:25;;;;;;;3.87;3.57;;;20.60;99.90;;;;;;5024989;28;20460;-65
2023/09/05 08:26:52;;;;;;;3.60;3.30;;;20.70;99.90;;;;;;5013811;28;20441;-65
2023/09/05 08:29:19;;;;;;;3.23;2.93;;;20.80;99.90;;;;;;5028247;28;20451;-65
2023/09/05 08:31:46;;;;;;;3.17;2.97;;;20.90;99.90;;;;;;5027933;28;20480;-65
2023/09/05 08:34:14;;;;;;;8.10;4.43;;;21.00;99.90;;;;;;5026927;28;20453;-65
2023/09/05 08:36:42;;;;;;;3.43;3.03;;;21.10;99.90;;;;;;5027032;28;20449;-65
2023/09/05 08:39:09;;;;;;;6.57;3.60;;;21.20;99.90;;;;;;5028356;28;20569;-64
2023/09/05 08:41:36;;;;;;;3.23;2.80;;;21.30;99.90;;;;;;5028204;28;20906;-65
2023/09/05 08:44:04;;;;;;;3.70;3.40;;;21.40;99.90;;;;;;5028089;28;20456;-65
2023/09/05 08:46:32;;;;;;;3.30;3.10;;;21.50;99.90;;;;;;5024267;28;20459;-65
2023/09/05 08:48:58;;;;;;;2.77;2.60;;;21.70;99.90;;;;;;5027554;28;20541;-65
2023/09/05 08:51:33;;;;;;;3.10;2.90;;;21.80;99.90;;;;;;5027619;28;20555;-65
2023/09/05 08:54:01;;;;;;;2.70;2.50;;;21.80;99.90;;;;;;5027619;28;20879;-65
2023/09/05 08:56:29;;;;;;;5.53;3.03;;;22.00;99.90;;;;;;5026296;28;20455;-65
2023/09/05 08:58:57;;;;;;;3.47;3.27;;;22.10;99.90;;;;;;5027442;28;20522;-65
2023/09/05 09:01:25;;;;;;;2.53;2.33;;;22.20;99.90;;;;;;5027187;28;20472;-65
2023/09/05 09:03:52;;;;;;;4.60;3.10;;;22.30;99.90;;;;;;5027543;28;20808;-65
2023/09/05 09:06:24;;;;;;;3.20;3.00;;;22.40;99.90;;;;;;5026400;28;20452;-65
2023/09/05 09:08:54;;;;;;;3.20;3.00;;;22.40;99.90;;;;;;5011562;28;21291;-65
2023/09/05 09:11:22;;;;;;;3.07;2.80;;;22.50;99.90;;;;;;5027535;28;20507;-65
2023/09/05 09:13:51;;;;;;;3.50;3.27;;;22.60;99.90;;;;;;5027406;28;20588;-65
2023/09/05 09:16:18;;;;;;;2.97;2.50;;;22.70;99.90;;;;;;5026398;28;20946;-64
2023/09/05 09:18:47;;;;;;;3.10;2.73;;;22.80;99.90;;;;;;5027495;28;20453;-65
2023/09/05 09:21:18;;;;;;;2.83;2.63;;;23.00;99.90;;;;;;5027431;28;20905;-65
2023/09/05 09:23:45;;;;;;;2.70;2.50;;;23.10;99.90;;;;;;5027405;28;20450;-65
2023/09/05 09:26:14;;;;;;;3.40;3.00;;;23.10;99.80;;;;;;5026113;28;20993;-65
2023/09/05 09:28:41;;;;;;;3.00;2.73;;;23.20;99.90;;;;;;5026904;28;20460;-64
2023/09/05 09:31:12;;;;;;;2.97;2.70;;;23.30;99.90;;;;;;5027219;28;20469;-65
2023/09/05 09:33:40;;;;;;;2.40;2.30;;;23.40;99.90;;;;;;5026220;28;20554;-65
2023/09/05 09:36:09;;;;;;;2.47;2.20;;;23.50;99.40;;;;;;5026030;28;20455;-65
2023/09/05 09:38:38;;;;;;;2.43;2.20;;;23.60;98.50;;;;;;5029319;28;20455;-65
2023/09/05 09:41:06;;;;;;;2.50;2.40;;;23.60;99.10;;;;;;5031053;28;20476;-66
2023/09/05 09:43:36;;;;;;;2.77;2.57;;;23.70;98.30;;;;;;5031336;28;20545;-65
2023/09/05 09:46:05;;;;;;;2.60;2.40;;;23.70;98.20;;;;;;5030003;28;20452;-65
2023/09/05 09:48:34;;;;;;;4.00;2.87;;;23.80;98.80;;;;;;5030294;28;20452;-65
2023/09/05 09:51:04;;;;;;;3.10;2.90;;;23.90;99.10;;;;;;5030482;28;20466;-65
2023/09/05 09:53:34;;;;;;;3.00;2.30;;;24.00;99.00;;;;;;5030745;28;20491;-65
2023/09/05 09:56:08;;;;;;;3.30;3.10;;;24.00;98.10;;;;;;5030097;28;20536;-65
2023/09/05 09:58:39;;;;;;;2.80;2.43;;;24.00;96.90;;;;;;5030478;28;20453;-65
2023/09/05 10:01:07;;;;;;;3.50;2.93;;;24.10;96.80;;;;;;5030465;28;20557;-65
2023/09/05 10:03:35;;;;;;;2.53;2.33;;;24.10;96.70;;;;;;5030565;28;20515;-65
2023/09/05 10:06:05;;;;;;;2.80;2.00;;;24.10;95.50;;;;;;5029355;28;21117;-65
2023/09/05 10:08:33;;;;;;;2.30;2.10;;;24.10;96.20;;;;;;5030598;28;20449;-64
2023/09/05 10:11:01;;;;;;;2.47;2.30;;;24.10;96.40;;;;;;5030509;28;20560;-64
2023/09/05 10:13:32;;;;;;;2.73;2.53;;;24.20;95.30;;;;;;5030541;28;20488;-65
2023/09/05 10:16:02;;;;;;;2.47;2.37;;;24.20;96.20;;;;;;5029211;28;20445;-65
2023/09/05 10:18:31;;;;;;;2.53;2.33;;;24.30;95.90;;;;;;5030121;28;20940;-65
2023/09/05 10:21:00;;;;;;;4.20;2.53;;;24.30;96.10;;;;;;5030287;28;20465;-65
2023/09/05 10:23:29;;;;;;;3.47;3.20;;;24.40;96.10;;;;;;5030112;28;20449;-65
2023/09/05 10:25:57;;;;;;;2.20;2.10;;;24.50;94.50;;;;;;5029319;28;20445;-65
2023/09/05 10:28:27;;;;;;;2.60;2.47;;;24.50;95.20;;;;;;5029594;28;21011;-65
2023/09/05 10:30:55;;;;;;;2.43;2.23;;;24.50;95.20;;;;;;5030305;28;20499;-65
2023/09/05 10:33:34;;;;;;;2.13;1.90;;;24.60;95.60;;;;;;5029178;28;20485;-65
2023/09/05 10:36:02;;;;;;;2.70;2.50;;;24.60;94.00;;;;;;5029030;28;20449;-65
2023/09/05 10:38:31;;;;;;;2.80;2.60;;;24.70;94.30;;;;;;5029804;28;21036;-65
2023/09/05 10:40:59;;;;;;;2.80;2.20;;;24.70;93.60;;;;;;5030205;28;20476;-65
2023/09/05 10:43:27;;;;;;;2.30;2.20;;;24.80;92.90;;;;;;5029981;28;20451;-65
2023/09/05 10:45:59;;;;;;;3.50;2.30;;;24.90;94.10;;;;;;5029462;28;20456;-65
2023/09/05 10:48:37;;;;;;;4.40;2.80;;;24.90;93.80;;;;;;5029235;28;20470;-66
2023/09/05 10:51:06;;;;;;;2.73;2.50;;;25.00;94.80;;;;;;5029315;28;20967;-65
2023/09/05 10:53:34;;;;;;;2.70;2.50;;;25.00;94.20;;;;;;5029566;28;20487;-65
2023/09/05 10:56:01;;;;;;;2.10;2.00;;;25.00;94.30;;;;;;5028469;28;20458;-65
2023/09/05 10:58:40;;;;;;;2.70;2.40;;;25.10;93.00;;;;;;5029216;28;20455;-65
2023/09/05 11:02:00;;;;;;;2.47;2.27;;;25.20;93.20;;;;;;5029168;28;20496;-65
2023/09/05 11:04:37;;;;;;;2.20;2.00;;;25.30;92.80;;;;;;5029435;28;20952;-65
2023/09/05 11:07:09;;;;;;;3.03;2.60;;;25.30;92.40;;;;;;5028408;28;20820;-65
2023/09/05 11:09:49;;;;;;;2.50;2.40;;;25.40;92.50;;;;;;5028996;28;20965;-66
2023/09/05 11:12:17;;;;;;;2.67;2.03;;;25.40;93.10;;;;;;5028949;28;21221;-65
2023/09/05 11:14:44;;;;;;;2.73;2.63;;;25.40;92.50;;;;;;5029206;28;20491;-65
2023/09/05 11:17:20;;;;;;;3.40;2.40;;;25.50;92.40;;;;;;5028173;28;20526;-65
2023/09/05 11:19:54;;;;;;;2.50;2.30;;;25.50;91.90;;;;;;5028696;28;20520;-65
2023/09/05 11:22:27;;;;;;;2.67;2.47;;;25.60;91.60;;;;;;5028760;28;20474;-65
2023/09/05 11:25:07;;;;;;;2.70;2.50;;;25.70;92.00;;;;;;5013624;28;20894;-66
2023/09/05 11:27:41;;;;;;;3.43;3.00;;;25.70;91.80;;;;;;5027887;28;20463;-65
2023/09/05 11:30:16;;;;;;;2.60;2.40;;;25.70;92.40;;;;;;5010388;28;20465;-65
2023/09/05 11:32:51;;;;;;;2.80;2.60;;;25.80;92.60;;;;;;5027456;28;20474;-65
2023/09/05 11:35:31;;;;;;;2.40;2.20;;;25.90;93.20;;;;;;5028910;28;20451;-65
2023/09/05 11:38:03;;;;;;;4.50;2.40;;;26.00;92.80;;;;;;5028082;28;20456;-65
2023/09/05 11:40:36;;;;;;;4.10;3.70;;;26.10;92.60;;;;;;5028212;28;20812;-65
2023/09/05 11:43:33;;;;;;;3.07;2.70;;;26.20;91.90;;;;;;5029080;28;20453;-65
2023/09/05 11:46:20;;;;;;;3.43;3.07;;;26.20;90.50;;;;;;5027676;28;20463;-65
2023/09/05 11:48:49;;;;;;;2.23;2.13;;;26.30;91.30;;;;;;5028046;28;20462;-65
2023/09/05 11:51:17;;;;;;;3.07;2.80;;;26.30;91.90;;;;;;5028306;28;20551;-65
2023/09/05 11:53:46;;;;;;;3.50;3.07;;;26.40;91.60;;;;;;5028361;28;20528;-65
2023/09/05 11:56:14;;;;;;;3.87;3.20;;;26.50;91.70;;;;;;5027405;28;20460;-65
2023/09/05 11:58:42;;;;;;;3.07;2.77;;;26.50;91.30;;;;;;5027946;28;20533;-65
2023/09/05 12:01:10;;;;;;;3.83;3.40;;;26.70;91.90;;;;;;5027373;28;20547;-65
2023/09/05 12:03:38;;;;;;;3.37;3.03;;;26.80;90.20;;;;;;5028003;28;21113;-65
2023/09/05 12:06:05;;;;;;;2.93;2.70;;;26.90;91.00;;;;;;5027430;28;20458;-65
2023/09/05 12:08:35;;;;;;;2.10;2.00;;;27.00;90.70;;;;;;5028218;28;20851;-65
2023/09/05 12:11:03;;;;;;;2.40;2.20;;;27.10;88.80;;;;;;5027876;28;21019;-66
2023/09/05 12:13:37;;;;;;;3.10;2.80;;;27.20;90.50;;;;;;5027691;28;21014;-65
2023/09/05 12:16:07;;;;;;;2.77;2.50;;;27.20;90.80;;;;;;5026935;28;21317;-65
2023/09/05 12:18:34;;;;;;;6.53;2.70;;;27.30;90.40;;;;;;5027855;28;20452;-65
2023/09/05 12:21:01;;;;;;;2.70;2.60;;;27.30;90.10;;;;;;5027685;28;20490;-65
2023/09/05 12:23:29;;;;;;;2.63;2.43;;;27.40;91.00;;;;;;5027983;28;20475;-65
2023/09/05 12:25:57;;;;;;;2.67;2.43;;;27.50;90.50;;;;;;5027085;28;20455;-65
2023/09/05 12:28:26;;;;;;;3.97;2.57;;;27.60;90.50;;;;;;5027814;28;20477;-65
2023/09/05 12:31:05;;;;;;;2.77;2.57;;;27.80;88.60;;;;;;5027580;28;20550;-65
2023/09/05 12:33:32;;;;;;;4.50;2.67;;;27.90;88.10;;;;;;5026767;28;21118;-66
2023/09/05 12:35:59;;;;;;;2.40;2.20;;;28.00;89.10;;;;;;5026648;28;21124;-65
2023/09/05 12:38:29;;;;;;;2.10;2.00;;;28.20;89.30;;;;;;5027392;28;20538;-65
2023/09/05 12:40:58;;;;;;;2.87;2.57;;;28.30;87.50;;;;;;5027236;28;21086;-65
2023/09/05 12:43:25;;;;;;;2.90;2.70;;;28.40;88.30;;;;;;5027686;28;20793;-66
2023/09/05 12:45:52;;;;;;;2.70;2.50;;;28.60;88.10;;;;;;5026668;28;20459;-65
2023/09/05 12:48:19;;;;;;;2.40;2.20;;;28.70;89.00;;;;;;5027414;28;20445;-65
2023/09/05 12:50:48;;;;;;;2.90;2.70;;;28.90;82.90;;;;;;5027148;28;20555;-65
2023/09/05 12:53:17;;;;;;;2.77;2.30;;;29.10;84.40;;;;;;5027344;28;21189;-65
2023/09/05 12:55:45;;;;;;;2.70;2.50;;;29.20;85.80;;;;;;5027281;28;20449;-65